createdAt,value
2018-09-04T00:01:26.789Z,86.39
2018-09-04T00:03:55.127Z,85.81
2018-09-04T00:06:23.475Z,86.31
2018-09-04T00:08:51.799Z,86.24
2018-09-04T00:11:20.151Z,86.19
2018-09-04T00:14:03.164Z,85.83
2018-09-04T00:16:31.516Z,87.09
2018-09-04T00:18:59.836Z,86.99
2018-09-04T00:21:28.176Z,86.81
2018-09-04T00:23:56.492Z,87.06
2018-09-04T00:26:24.879Z,87.71
2018-09-04T00:28:53.203Z,88.21
2018-09-04T00:31:21.557Z,88.56
2018-09-04T00:33:49.908Z,88.72
2018-09-04T00:36:18.240Z,89.00
2018-09-04T00:38:46.620Z,89.20
2018-09-04T00:41:14.976Z,89.35
2018-09-04T00:43:43.748Z,88.48
2018-09-04T00:46:12.097Z,88.69
2018-09-04T00:48:40.448Z,89.27
2018-09-04T00:51:08.832Z,89.74
2018-09-04T00:53:37.424Z,89.24
2018-09-04T00:56:05.786Z,89.69
2018-09-04T00:58:34.144Z,89.57
2018-09-04T01:01:02.504Z,89.88
2018-09-04T01:03:30.824Z,90.71
2018-09-04T01:05:59.203Z,90.88
2018-09-04T01:08:27.535Z,90.38
2018-09-04T01:10:56.471Z,89.82
2018-09-04T01:13:24.807Z,90.41
2018-09-04T01:15:53.181Z,90.70
2018-09-04T01:18:21.813Z,91.14
2018-09-04T01:20:50.168Z,91.80
2018-09-04T01:23:18.484Z,91.98
2018-09-04T01:25:46.828Z,92.00
2018-09-04T01:28:15.160Z,91.93
2018-09-04T01:30:43.513Z,92.75
2018-09-04T01:33:11.851Z,92.46
2018-09-04T01:35:40.275Z,92.51
2018-09-04T01:38:08.597Z,92.00
2018-09-04T01:40:36.927Z,92.67
2018-09-04T01:43:05.907Z,92.51
2018-09-04T01:45:35.064Z,91.56
2018-09-04T01:48:03.431Z,92.04
2018-09-04T01:50:31.757Z,92.98
2018-09-04T01:53:00.108Z,93.05
2018-09-04T01:55:28.451Z,92.18
2018-09-04T01:57:56.820Z,92.22
2018-09-04T02:00:25.132Z,92.73
2018-09-04T02:02:53.990Z,92.09
2018-09-04T02:05:23.328Z,92.01
2018-09-04T02:07:51.789Z,91.99
2018-09-04T02:10:20.140Z,92.00
2018-09-04T02:12:48.496Z,92.50
2018-09-04T02:15:17.243Z,93.48
2018-09-04T02:17:45.589Z,92.87
2018-09-04T02:20:13.940Z,92.85
2018-09-04T02:22:42.359Z,93.00
2018-09-04T02:25:10.699Z,92.27
2018-09-04T02:27:39.276Z,93.48
2018-09-04T02:30:07.628Z,92.92
2018-09-04T02:32:35.989Z,92.95
2018-09-04T02:35:04.588Z,92.98
2018-09-04T02:37:32.940Z,92.51
2018-09-04T02:40:01.277Z,92.11
2018-09-04T02:42:29.644Z,91.53
2018-09-04T02:44:57.956Z,91.50
2018-09-04T02:47:26.318Z,91.90
2018-09-04T02:49:54.653Z,92.04
2018-09-04T02:52:23.015Z,91.78
2018-09-04T02:54:51.351Z,92.18
2018-09-04T02:57:19.696Z,91.68
2018-09-04T02:59:48.549Z,91.25
2018-09-04T03:02:16.928Z,91.45
2018-09-04T03:04:45.275Z,92.29
2018-09-04T03:07:13.632Z,92.27
2018-09-04T03:09:42.292Z,92.43
2018-09-04T03:12:10.646Z,92.89
2018-09-04T03:14:38.977Z,92.82
2018-09-04T03:17:07.360Z,92.72
2018-09-04T03:19:35.676Z,92.93
2018-09-04T03:22:04.037Z,93.18
2018-09-04T03:24:32.688Z,93.18
2018-09-04T03:27:01.041Z,93.19
2018-09-04T03:29:29.379Z,93.44
2018-09-04T03:31:57.720Z,93.37
2018-09-04T03:34:26.040Z,93.70
2018-09-04T03:36:54.415Z,93.63
2018-09-04T03:39:22.767Z,93.87
2018-09-04T03:41:51.088Z,93.75
2018-09-04T03:44:19.567Z,93.70
2018-09-04T03:46:47.833Z,93.94
2018-09-04T03:49:16.187Z,93.48
2018-09-04T03:51:44.518Z,93.49
2018-09-04T03:54:12.888Z,93.38
2018-09-04T03:56:41.240Z,93.71
2018-09-04T03:59:09.608Z,93.76
2018-09-04T04:01:37.944Z,93.75
2018-09-04T04:04:06.324Z,93.83
2018-09-04T04:06:34.807Z,93.56
2018-09-04T04:09:03.783Z,93.55
2018-09-04T04:11:32.080Z,92.72
2018-09-04T04:14:00.419Z,93.62
2018-09-04T04:16:28.747Z,93.29
2018-09-04T04:18:57.090Z,93.42
2018-09-04T04:21:25.417Z,93.59
2018-09-04T04:23:53.791Z,93.34
2018-09-04T04:26:22.107Z,93.38
2018-09-04T04:28:50.502Z,93.31
2018-09-04T04:31:18.824Z,93.51
2018-09-04T04:33:47.155Z,94.23
2018-09-04T04:36:15.481Z,94.04
2018-09-04T04:38:43.844Z,94.15
2018-09-04T04:41:12.164Z,93.79
2018-09-04T04:43:40.516Z,93.63
2018-09-04T04:46:08.844Z,94.76
2018-09-04T04:48:37.212Z,94.28
2018-09-04T04:51:05.732Z,94.35
2018-09-04T04:53:34.084Z,94.17
2018-09-04T04:56:02.403Z,93.80
2018-09-04T04:58:30.785Z,94.29
2018-09-04T05:00:59.228Z,94.12
2018-09-04T05:03:27.580Z,93.77
2018-09-04T05:05:55.920Z,93.23
2018-09-04T05:08:24.265Z,93.24
2018-09-04T05:10:53.050Z,92.92
2018-09-04T05:13:21.427Z,92.47
2018-09-04T05:15:49.748Z,91.36
2018-09-04T05:18:18.140Z,90.42
2018-09-04T05:20:46.492Z,90.54
2018-09-04T05:23:14.840Z,90.16
2018-09-04T05:25:43.676Z,90.29
2018-09-04T05:28:12.027Z,90.02
2018-09-04T05:30:40.389Z,89.51
2018-09-04T05:33:14.084Z,89.10
2018-09-04T05:35:46.596Z,89.10
2018-09-04T05:38:14.933Z,89.04
2018-09-04T05:40:43.269Z,87.81
2018-09-04T05:43:15.195Z,87.97
2018-09-04T05:45:43.575Z,87.78
2018-09-04T05:48:14.564Z,87.10
2018-09-04T05:50:42.961Z,87.63
2018-09-04T05:53:11.348Z,87.10
2018-09-04T05:55:39.835Z,86.92
2018-09-04T05:58:08.157Z,86.59
2018-09-04T06:00:38.785Z,87.04
2018-09-04T06:03:07.132Z,86.43
2018-09-04T06:05:35.508Z,86.49
2018-09-04T06:08:03.836Z,86.85
2018-09-04T06:10:32.172Z,85.86
2018-09-04T06:13:00.503Z,85.98
2018-09-04T06:15:29.480Z,85.27
2018-09-04T06:17:57.812Z,85.64
2018-09-04T06:20:26.181Z,85.90
2018-09-04T06:22:54.509Z,85.83
2018-09-04T06:25:22.863Z,85.86
2018-09-04T06:27:51.212Z,85.87
2018-09-04T06:30:19.572Z,86.27
2018-09-04T06:32:47.902Z,85.66
2018-09-04T06:35:16.262Z,85.39
2018-09-04T06:37:44.600Z,85.11
2018-09-04T06:40:12.971Z,84.05
2018-09-04T06:42:43.943Z,84.58
2018-09-04T06:45:12.304Z,83.79
2018-09-04T06:47:40.729Z,83.68
2018-09-04T06:50:09.268Z,82.08
2018-09-04T06:52:37.593Z,81.85
2018-09-04T06:55:06.205Z,81.22
2018-09-04T06:57:34.544Z,80.21
2018-09-04T07:00:02.941Z,80.00
2018-09-04T07:02:31.275Z,78.72
2018-09-04T07:04:59.620Z,78.17
2018-09-04T07:07:27.940Z,76.29
2018-09-04T07:09:56.425Z,74.82
2018-09-04T07:12:24.760Z,73.13
2018-09-04T07:14:53.161Z,70.47
2018-09-04T07:17:21.500Z,63.83
2018-09-04T07:19:49.865Z,54.13
2018-09-04T07:22:18.673Z,45.54
2018-09-04T07:24:47.047Z,43.61
2018-09-04T07:27:15.656Z,42.99
2018-09-04T07:29:44.034Z,40.73
2018-09-04T07:32:12.833Z,36.95
2018-09-04T07:34:41.221Z,36.98
2018-09-04T07:37:09.573Z,38.68
2018-09-04T07:39:37.942Z,37.29
2018-09-04T07:42:06.556Z,37.07
2018-09-04T07:44:35.732Z,34.25
2018-09-04T07:47:04.121Z,38.73
2018-09-04T07:49:32.473Z,34.64
2018-09-04T07:52:00.824Z,35.78
2018-09-04T07:54:29.140Z,35.02
2018-09-04T07:56:57.549Z,34.75
2018-09-04T07:59:25.893Z,33.54
2018-09-04T08:01:54.256Z,33.32
2018-09-04T08:04:22.580Z,33.24
2018-09-04T08:06:52.550Z,31.71
2018-09-04T08:09:20.876Z,33.23
2018-09-04T08:11:49.369Z,31.11
2018-09-04T08:14:17.712Z,29.79
2018-09-04T08:16:46.101Z,29.69
2018-09-04T08:19:14.432Z,30.23
2018-09-04T08:21:42.776Z,30.54
2018-09-04T08:24:11.334Z,28.89
2018-09-04T08:26:39.679Z,29.65
2018-09-04T08:29:07.991Z,29.23
2018-09-04T08:31:36.351Z,28.77
2018-09-04T08:34:04.706Z,29.21
2018-09-04T08:36:33.316Z,35.46
2018-09-04T08:39:01.660Z,35.77
2018-09-04T08:41:30.024Z,34.37
2018-09-04T08:43:58.368Z,30.11
2018-09-04T08:46:26.728Z,30.77
2018-09-04T08:48:55.056Z,28.51
2018-09-04T08:51:23.408Z,27.33
2018-09-04T08:53:51.732Z,26.27
2018-09-04T08:56:20.081Z,27.10
2018-09-04T08:58:48.428Z,26.10
2018-09-04T09:01:16.792Z,27.54
2018-09-04T09:03:45.230Z,25.86
2018-09-04T09:06:13.528Z,26.64
2018-09-04T09:08:41.872Z,27.96
2018-09-04T09:11:10.265Z,25.62
2018-09-04T09:13:39.020Z,25.86
2018-09-04T09:16:07.445Z,29.01
2018-09-04T09:18:35.784Z,26.70
2018-09-04T09:21:04.156Z,25.91
2018-09-04T09:23:32.480Z,28.02
2018-09-04T09:26:01.465Z,25.88
2018-09-04T09:28:29.800Z,22.94
2018-09-04T09:30:58.372Z,23.72
2018-09-04T09:33:26.704Z,23.67
2018-09-04T09:35:55.052Z,22.80
2018-09-04T09:38:23.365Z,20.94
2018-09-04T09:40:51.791Z,20.82
2018-09-04T09:43:20.117Z,26.59
2018-09-04T09:45:48.469Z,25.94
2018-09-04T09:48:16.871Z,23.41
2018-09-04T09:50:45.453Z,22.65
2018-09-04T09:53:13.826Z,22.19
2018-09-04T09:55:45.588Z,21.06
2018-09-04T09:58:13.911Z,20.92
2018-09-04T10:00:47.579Z,20.26
2018-09-04T10:03:21.384Z,19.30
2018-09-04T10:05:49.725Z,19.98
2018-09-04T10:08:18.129Z,18.31
2018-09-04T10:10:46.665Z,19.66
2018-09-04T10:13:15.024Z,20.54
2018-09-04T10:15:43.432Z,22.50
2018-09-04T10:18:11.785Z,27.24
2018-09-04T10:20:40.824Z,30.60
2018-09-04T10:23:09.204Z,30.09
2018-09-04T10:25:37.527Z,27.75
2018-09-04T10:28:05.920Z,29.54
2018-09-04T10:30:34.611Z,33.03
2018-09-04T10:33:04.024Z,34.41
2018-09-04T10:35:39.131Z,35.17
2018-09-04T10:38:13.005Z,35.37
2018-09-04T10:40:47.234Z,36.69
2018-09-04T10:43:17.690Z,37.28
2018-09-04T10:45:56.024Z,36.21
2018-09-04T10:48:29.250Z,36.64
2018-09-04T10:51:04.112Z,35.88
2018-09-04T10:53:38.115Z,36.54
2018-09-04T10:56:08.905Z,35.77
2018-09-04T10:58:42.937Z,34.17
2018-09-04T11:01:12.540Z,26.27
2018-09-04T11:03:42.932Z,24.52
2018-09-04T11:06:15.910Z,24.90
2018-09-04T11:08:46.477Z,26.98
2018-09-04T11:11:16.521Z,30.12
2018-09-04T11:13:46.718Z,29.66
2018-09-04T11:16:16.687Z,25.74
2018-09-04T11:18:46.449Z,23.36
2018-09-04T11:21:19.491Z,22.75
2018-09-04T11:23:50.432Z,21.30
2018-09-04T11:26:20.702Z,20.63
2018-09-04T11:28:53.658Z,22.08
2018-09-04T11:31:32.842Z,21.66
2018-09-04T11:34:04.544Z,23.33
2018-09-04T11:36:34.414Z,24.77
2018-09-04T11:39:04.749Z,26.76
2018-09-04T11:41:38.656Z,26.00
2018-09-04T11:44:17.794Z,25.04
2018-09-04T11:46:48.689Z,23.27
2018-09-04T11:49:21.936Z,22.34
2018-09-04T11:51:51.609Z,22.95
2018-09-04T11:54:21.665Z,23.62
2018-09-04T11:56:52.167Z,24.80
2018-09-04T11:59:22.306Z,24.53
2018-09-04T12:01:57.110Z,26.42
2018-09-04T12:04:27.422Z,22.98
2018-09-04T12:06:59.348Z,21.29
2018-09-04T12:09:29.246Z,23.84
2018-09-04T12:11:59.255Z,28.39
2018-09-04T12:14:33.895Z,30.73
2018-09-04T12:17:06.151Z,30.50
2018-09-04T12:22:29.395Z,34.85
2018-09-04T12:25:00.753Z,37.36
2018-09-04T12:27:30.822Z,36.82
2018-09-04T12:30:00.362Z,35.78
2018-09-04T12:32:28.707Z,33.71
2018-09-04T12:34:58.204Z,27.99
2018-09-04T12:37:26.589Z,25.60
2018-09-04T12:39:58.384Z,27.49
2018-09-04T12:42:27.813Z,30.15
2018-09-04T12:44:58.284Z,31.85
2018-09-04T12:47:26.637Z,32.30
2018-09-04T12:49:55.164Z,29.36
2018-09-04T12:52:23.913Z,31.67
2018-09-04T12:54:52.279Z,29.47
2018-09-04T12:57:21.023Z,28.59
2018-09-04T12:59:49.439Z,29.97
2018-09-04T13:02:17.756Z,29.13
2018-09-04T13:04:46.800Z,26.36
2018-09-04T13:07:15.142Z,25.61
2018-09-04T13:09:43.616Z,23.93
2018-09-04T13:12:11.951Z,24.12
2018-09-04T13:14:40.770Z,25.40
2018-09-04T13:17:08.992Z,25.23
2018-09-04T13:19:38.145Z,25.22
2018-09-04T13:22:06.532Z,24.04
2018-09-04T13:24:35.064Z,22.85
2018-09-04T13:27:04.482Z,23.09
2018-09-04T13:29:34.061Z,22.57
2018-09-04T13:32:02.452Z,21.61
2018-09-04T13:34:32.166Z,21.90
2018-09-04T13:37:00.760Z,21.29
2018-09-04T13:39:30.858Z,22.87
2018-09-04T13:42:01.604Z,22.88
2018-09-04T13:44:36.115Z,24.56
2018-09-04T13:47:09.536Z,26.92
2018-09-04T13:49:40.279Z,28.93
2018-09-04T13:52:13.614Z,26.40
2018-09-04T13:54:44.634Z,25.88
2018-09-04T13:57:14.380Z,27.76
2018-09-04T13:59:45.642Z,30.95
2018-09-04T14:02:15.494Z,34.94
2018-09-04T14:04:50.811Z,37.29
2018-09-04T14:07:30.832Z,38.38
2018-09-04T14:10:00.913Z,40.21
2018-09-04T14:12:31.167Z,40.79
2018-09-04T14:15:01.754Z,40.07
2018-09-04T14:17:31.086Z,41.43
2018-09-04T14:20:03.617Z,41.48
2018-09-04T14:22:39.191Z,42.45
2018-09-04T14:25:11.438Z,41.99
2018-09-04T14:27:44.712Z,41.90
2018-09-04T14:30:16.145Z,43.00
2018-09-04T14:32:45.153Z,42.43
2018-09-04T14:35:18.695Z,42.74
2018-09-04T14:37:48.178Z,42.93
2018-09-04T14:40:18.317Z,42.20
2018-09-04T14:42:49.029Z,42.41
2018-09-04T14:45:19.120Z,42.25
2018-09-04T14:47:52.623Z,43.25
2018-09-04T14:50:22.664Z,41.68
2018-09-04T14:52:55.740Z,41.86
2018-09-04T14:55:26.429Z,41.30
2018-09-04T14:57:56.665Z,40.83
2018-09-04T15:00:34.990Z,41.52
2018-09-04T15:03:07.085Z,40.45
2018-09-04T15:05:37.713Z,39.28
2018-09-04T15:08:10.531Z,37.49
2018-09-04T15:10:40.256Z,35.10
2018-09-04T15:13:09.800Z,31.72
2018-09-04T15:15:41.800Z,31.07
2018-09-04T15:18:12.204Z,30.94
2018-09-04T15:20:41.901Z,31.54
2018-09-04T15:23:12.892Z,30.98
2018-09-04T15:25:53.781Z,30.94
2018-09-04T15:28:25.196Z,30.25
2018-09-04T15:31:00.525Z,29.84
2018-09-04T15:33:30.252Z,30.07
2018-09-04T15:36:01.003Z,31.40
2018-09-04T15:38:30.685Z,33.28
2018-09-04T15:41:04.261Z,35.73
2018-09-04T15:43:37.983Z,35.66
2018-09-04T15:46:11.688Z,35.36
2018-09-04T15:48:41.770Z,33.91
2018-09-04T15:51:15.532Z,34.81
2018-09-04T15:53:48.483Z,33.99
2018-09-04T15:56:21.143Z,34.70
2018-09-04T15:58:56.934Z,35.71
2018-09-04T16:01:27.715Z,35.95
2018-09-04T16:03:58.008Z,36.03
2018-09-04T16:06:27.834Z,36.23
2018-09-04T16:09:05.300Z,36.11
2018-09-04T16:11:39.294Z,35.54
2018-09-04T16:14:12.061Z,37.37
2018-09-04T16:16:44.637Z,37.39
2018-09-04T16:19:19.437Z,38.72
2018-09-04T16:21:49.926Z,38.30
2018-09-04T16:24:23.205Z,38.63
2018-09-04T16:26:58.005Z,39.42
2018-09-04T16:29:27.960Z,39.28
2018-09-04T16:31:57.598Z,39.40
2018-09-04T16:34:27.897Z,40.07
2018-09-04T16:37:00.222Z,40.50
2018-09-04T16:39:30.935Z,40.61
2018-09-04T16:42:04.164Z,41.36
2018-09-04T16:44:37.925Z,42.91
2018-09-04T16:47:13.618Z,42.88
2018-09-04T16:49:43.893Z,43.02
2018-09-04T16:52:18.222Z,43.65
2018-09-04T16:54:50.439Z,44.05
2018-09-04T16:57:21.192Z,44.68
2018-09-04T16:59:55.643Z,44.73
2018-09-04T17:02:25.806Z,44.71
2018-09-04T17:05:02.674Z,46.15
2018-09-04T17:07:32.783Z,45.95
2018-09-04T17:10:04.130Z,47.06
2018-09-04T17:12:34.961Z,46.34
2018-09-04T17:15:05.025Z,46.49
2018-09-04T17:17:34.898Z,47.62
2018-09-04T17:20:06.180Z,47.95
2018-09-04T17:22:39.744Z,48.28
2018-09-04T17:25:09.686Z,48.12
2018-09-04T17:27:39.429Z,48.80
2018-09-04T17:30:12.052Z,49.39
2018-09-04T17:32:41.437Z,50.92
2018-09-04T17:35:11.049Z,51.85
2018-09-04T17:37:41.858Z,52.01
2018-09-04T17:40:11.638Z,52.25
2018-09-04T17:42:43.204Z,53.04
2018-09-04T17:45:13.687Z,52.47
2018-09-04T17:47:51.164Z,53.12
2018-09-04T17:50:21.229Z,53.01
2018-09-04T17:52:51.213Z,53.38
2018-09-04T17:55:26.314Z,53.96
2018-09-04T17:58:03.315Z,54.81
2018-09-04T18:00:36.602Z,55.45
2018-09-04T18:03:08.290Z,56.18
2018-09-04T18:05:39.541Z,57.10
2018-09-04T18:08:12.047Z,56.47
2018-09-04T18:10:42.435Z,56.80
2018-09-04T18:13:14.431Z,56.98
2018-09-04T18:15:48.327Z,58.26
2018-09-04T18:18:18.647Z,57.69
2018-09-04T18:20:48.780Z,58.10
2018-09-04T18:23:19.470Z,58.22
2018-09-04T18:25:52.853Z,58.43
2018-09-04T18:28:28.455Z,58.85
2018-09-04T18:30:58.937Z,58.95
2018-09-04T18:33:29.148Z,59.72
2018-09-04T18:36:01.315Z,59.65
2018-09-04T18:38:34.104Z,60.23
2018-09-04T18:41:07.304Z,59.93
2018-09-04T18:43:38.441Z,59.79
2018-09-04T18:46:11.579Z,60.60
2018-09-04T18:48:45.692Z,60.73
2018-09-04T18:51:17.578Z,61.13
2018-09-04T18:53:49.171Z,60.26
2018-09-04T18:56:23.718Z,60.77
2018-09-04T18:58:54.001Z,61.00
2018-09-04T19:01:25.243Z,62.54
2018-09-04T19:03:56.100Z,62.41
2018-09-04T19:06:26.381Z,62.14
2018-09-04T19:08:56.403Z,61.65
2018-09-04T19:11:29.853Z,61.86
2018-09-04T19:14:02.379Z,62.03
2018-09-04T19:16:36.684Z,61.12
2018-09-04T19:19:09.226Z,62.01
2018-09-04T19:21:39.329Z,60.81
2018-09-04T19:24:14.642Z,60.08
2018-09-04T19:26:49.168Z,59.83
2018-09-04T19:29:24.406Z,59.55
2018-09-04T19:31:57.492Z,59.26
2018-09-04T19:34:28.108Z,59.61
2018-09-04T19:36:57.969Z,58.54
2018-09-04T19:39:28.274Z,59.47
2018-09-04T19:42:02.164Z,59.03
2018-09-04T19:44:36.592Z,59.26
2018-09-04T19:47:09.791Z,59.81
2018-09-04T19:49:40.101Z,58.62
2018-09-04T19:52:10.148Z,59.60
2018-09-04T19:54:40.538Z,59.59
2018-09-04T19:57:10.472Z,59.45
2018-09-04T19:59:40.093Z,60.66
2018-09-04T20:02:12.167Z,59.82
2018-09-04T20:04:42.804Z,60.70
2018-09-04T20:07:19.751Z,60.90
2018-09-04T20:09:49.300Z,60.40
2018-09-04T20:12:18.899Z,61.10
2018-09-04T20:14:49.497Z,60.94
2018-09-04T20:17:22.751Z,61.98
2018-09-04T20:19:52.464Z,61.59
2018-09-04T20:22:23.169Z,62.36
2018-09-04T20:24:54.684Z,62.51
2018-09-04T20:27:27.858Z,62.46
2018-09-04T20:30:02.517Z,62.85
2018-09-04T20:32:35.762Z,62.91
2018-09-04T20:35:07.602Z,63.35
2018-09-04T20:37:41.002Z,63.35
2018-09-04T20:40:14.309Z,62.99
2018-09-04T20:42:45.222Z,63.13
2018-09-04T20:45:14.411Z,64.48
2018-09-04T20:47:42.884Z,63.54
2018-09-04T20:50:11.236Z,63.94
2018-09-04T20:52:39.588Z,64.72
2018-09-04T20:55:07.976Z,64.41
2018-09-04T20:57:38.773Z,63.41
2018-09-04T21:00:20.818Z,64.25
2018-09-04T21:03:00.569Z,65.25
2018-09-04T21:05:40.948Z,65.77
2018-09-04T21:08:24.064Z,66.07
2018-09-04T21:10:53.132Z,66.75
2018-09-04T21:13:21.535Z,66.23
2018-09-04T21:15:49.901Z,66.93
2018-09-04T21:18:18.288Z,67.01
2018-09-04T21:20:46.647Z,67.79
2018-09-04T21:23:15.544Z,67.26
2018-09-04T21:25:43.924Z,68.25
2018-09-04T21:28:12.276Z,68.04
2018-09-04T21:30:40.641Z,68.78
2018-09-04T21:33:09.094Z,68.29
2018-09-04T21:35:37.444Z,68.43
2018-09-04T21:38:05.830Z,68.15
2018-09-04T21:40:34.192Z,67.84
2018-09-04T21:43:02.519Z,67.91
2018-09-04T21:45:30.894Z,68.51
2018-09-04T21:47:59.212Z,68.33
2018-09-04T21:50:27.563Z,68.61
2018-09-04T21:52:55.896Z,69.24
2018-09-04T21:55:24.248Z,67.32
2018-09-04T21:57:52.567Z,65.57
2018-09-04T22:00:25.520Z,67.34
2018-09-04T22:02:54.412Z,67.02
2018-09-04T22:05:24.056Z,67.11
2018-09-04T22:07:53.257Z,68.45
2018-09-04T22:10:21.650Z,68.05
2018-09-04T22:12:50.017Z,69.14
2018-09-04T22:15:18.396Z,69.42
2018-09-04T22:17:46.784Z,69.03
2018-09-04T22:20:15.131Z,69.78
2018-09-04T22:22:43.480Z,70.32
2018-09-04T22:25:11.853Z,69.43
2018-09-04T22:27:40.205Z,70.46
2018-09-04T22:30:08.617Z,70.45
2018-09-04T22:32:36.957Z,70.00
2018-09-04T22:35:05.448Z,70.88
2018-09-04T22:37:33.785Z,70.70
2018-09-04T22:40:02.133Z,70.86
2018-09-04T22:42:30.652Z,70.74
2018-09-04T22:44:59.020Z,70.97
2018-09-04T22:47:27.360Z,70.76
2018-09-04T22:50:00.927Z,71.80
2018-09-04T22:52:31.448Z,72.28
2018-09-04T22:55:02.632Z,71.49
2018-09-04T22:57:31.456Z,71.71
2018-09-04T22:59:59.836Z,71.17
2018-09-04T23:02:28.261Z,69.92
2018-09-04T23:04:57.061Z,69.52
2018-09-04T23:07:25.384Z,69.05
2018-09-04T23:09:53.757Z,68.31
2018-09-04T23:12:22.144Z,68.11
2018-09-04T23:14:50.512Z,68.57
2018-09-04T23:17:18.876Z,67.68
2018-09-04T23:19:47.285Z,68.46
2018-09-04T23:22:15.604Z,68.65
2018-09-04T23:24:43.936Z,68.73
2018-09-04T23:27:12.288Z,69.61
2018-09-04T23:29:40.624Z,69.58
2018-09-04T23:32:08.980Z,70.27
2018-09-04T23:34:37.833Z,70.77
2018-09-04T23:37:06.325Z,71.04
2018-09-04T23:39:34.668Z,70.85
2018-09-04T23:42:03.016Z,70.68
2018-09-04T23:44:31.352Z,70.86
2018-09-04T23:46:59.754Z,72.01
2018-09-04T23:49:28.607Z,71.90
2018-09-04T23:51:56.986Z,71.84
2018-09-04T23:54:25.527Z,72.58
2018-09-04T23:56:53.920Z,72.76
2018-09-04T23:59:22.573Z,73.04
